Brightwood, OR (97011)

12:43 PM PDT on March 30, 2017 (GMT -0700)
Brightwood-Welches | | Change Station
Active Advisory: Flood Warning

Elev 1161 ft 45.36 °N, 122.00 °W | Updated 14 seconds ago

Rain
Rain
43.6 °F
Feels Like 44 °F
N
0.0
Wind Variable Wind from NE

Today
High -- | Low -- °F
--% Chance of Precip.
Yesterday
High -- | Low -- °F
Precip. -- in
Pressure 30.25 in
Visibility 10.0 miles
Clouds Mostly Cloudy 3600 ft
Overcast 4300 ft
Windchill 44 °F
Dew Point 43 °F
Humidity 98%
Rainfall 0.45 in
Snow Depth Not available.
6:51 AM 7:34 PM
Waxing Crescent, 10% visible
METAR KTTD 301853Z 27006KT 10SM BKN036 OVC043 10/04 A3025 RMK AO2 RAB08E21 SLP243 P0000 T01000044
Pressure 30.25 in
Visibility 10.0 miles
Clouds Mostly Cloudy 3600 ft
Overcast 4300 ft
Windchill 44 °F
Dew Point 43 °F
Humidity 98%
Rainfall 0.45 in
Snow Depth Not available.
6:51 AM 7:34 PM
Waxing Crescent, 10% visible
METAR KTTD 301853Z 27006KT 10SM BKN036 OVC043 10/04 A3025 RMK AO2 RAB08E21 SLP243 P0000 T01000044

Get Your Daily Forecast Email!

Thanks for signing up!

Be on the lookout for a verification email in your inbox.

You'll start receiving severe weather alerts in your inbox..

×

10-Day Weather Forecast

Almanac

Astronomy

Mar. 30, 2017 Rise Set
Actual Time
Civil Twilight
Nautical Twilight
Astronomical Twilight
Moon
Length of Visible Light
Length of Day
Tomorrow will be .
, % of the Moon is Illuminated

Today's Extremes

State Highs State Lows

Community

WunderPhotos

Upload Photos

1,962,540 photos uploaded!

WunderBlog® & News

Nearby

Air Quality

  Air Quality AQ Index Pollutant
Not available.

Snow Depth

Station Depth Elevation

Earthquake Activity

City Distance Mag. Time & Date
Minimum magnitude displayed is 2.5.

Earthquake Activity

City Distance Mag. Time & Date
Minimum magnitude displayed is 2.5.

Coastal Water Temperatures

Place Temperature

Stations

Nearby Weather Stations

Station Location Temp. Windchill Dew Point Humidity Wind Precip. Elev Updated Type
                   

Watches & Warnings

Flood Warning
Issued: 6:05 PM PDT Mar. 29, 2017 – National Weather Service

The Flood Warning continues for
the Columbia River at Vancouver.
* At 5 PM Wednesday the stage was... 17.3 feet.
* Flood stage is 16.0 feet.
* Forecast... this river will range from 17.2 to 17.8 ft through
Friday and remain above flood stage for at least the next
several days.
* Impact... above 17 feet, expect flooding of some lowland access
roads, parking areas, and trails on Sauvie Island, around Vancouver
Lake, and other Parks and trails along the Columbia in the Portland
and Vancouver Metro area. Access to some house-boat communities is
impaired.


Lat... Lon 4555 12228 4567 12265 4576 12274 4576 12286 4556 12269